createdAt,value
2023-01-10T00:00:01.190Z,30.05
2023-01-10T00:02:28.685Z,22.15
2023-01-10T00:04:56.653Z,25.00
2023-01-10T00:07:24.093Z,25.00
2023-01-10T00:09:51.598Z,36.75
2023-01-10T00:12:37.443Z,27.77
2023-01-10T00:15:05.495Z,28.08
2023-01-10T00:17:32.904Z,26.10
2023-01-10T00:20:02.688Z,24.42
2023-01-10T00:22:30.612Z,33.22
2023-01-10T00:24:58.939Z,24.40
2023-01-10T00:27:26.830Z,26.95
2023-01-10T00:29:54.888Z,28.92
2023-01-10T00:32:22.727Z,34.78
2023-01-10T00:34:50.297Z,24.50
2023-01-10T00:37:18.215Z,26.27
2023-01-10T00:39:46.213Z,25.50
2023-01-10T00:42:33.860Z,34.35
2023-01-10T00:45:01.396Z,30.55
2023-01-10T00:47:29.410Z,29.75
2023-01-10T00:49:58.853Z,30.80
2023-01-10T00:52:26.612Z,27.20
2023-01-10T00:54:54.069Z,30.75
2023-01-10T00:57:21.495Z,21.30
2023-01-10T00:59:50.174Z,35.63
2023-01-10T01:02:19.057Z,34.08
2023-01-10T01:04:46.924Z,29.02
2023-01-10T01:07:15.661Z,27.02
2023-01-10T01:10:02.066Z,34.47
2023-01-10T01:12:29.431Z,27.38
2023-01-10T01:14:56.911Z,33.72
2023-01-10T01:17:24.617Z,28.25
2023-01-10T01:19:52.111Z,34.30
2023-01-10T01:22:19.812Z,34.22
2023-01-10T01:24:47.270Z,29.15
2023-01-10T01:27:14.758Z,35.13
2023-01-10T01:29:43.701Z,33.78
2023-01-10T01:32:11.312Z,30.25
2023-01-10T01:34:38.925Z,30.73
2023-01-10T01:37:06.591Z,35.15
2023-01-10T01:39:33.956Z,31.42
2023-01-10T01:42:01.734Z,33.45
2023-01-10T01:44:34.511Z,28.02
2023-01-10T01:47:14.759Z,30.65
2023-01-10T01:49:44.111Z,31.02
2023-01-10T01:52:19.197Z,29.65
2023-01-10T01:54:47.658Z,31.90
2023-01-10T01:57:20.150Z,27.52
2023-01-10T01:59:50.500Z,25.50
2023-01-10T02:02:21.346Z,29.75
2023-01-10T02:04:57.472Z,29.85
2023-01-10T02:07:27.277Z,28.38
2023-01-10T02:10:21.585Z,34.30
2023-01-10T02:12:50.942Z,27.60
2023-01-10T02:15:20.650Z,32.25
2023-01-10T02:17:52.645Z,24.83
2023-01-10T02:20:21.987Z,24.50
2023-01-10T02:23:20.714Z,26.80
2023-01-10T02:26:01.468Z,42.78
2023-01-10T02:28:51.502Z,33.15
2023-01-10T02:31:50.168Z,34.63
2023-01-10T02:34:21.376Z,38.97
2023-01-10T02:37:07.366Z,47.72
2023-01-10T02:40:00.228Z,28.45
2023-01-10T02:42:48.652Z,40.08
2023-01-10T02:45:31.940Z,39.95
2023-01-10T02:48:00.754Z,33.03
2023-01-10T02:50:35.774Z,35.35
2023-01-10T02:53:07.428Z,28.98
2023-01-10T02:55:58.510Z,32.22
2023-01-10T02:58:35.263Z,43.72
2023-01-10T03:01:38.209Z,34.05
2023-01-10T03:04:23.015Z,29.08
2023-01-10T03:07:06.025Z,29.83
2023-01-10T03:09:34.952Z,30.83
2023-01-10T03:12:18.309Z,35.38
2023-01-10T03:14:47.190Z,30.70
2023-01-10T03:17:15.843Z,31.60
2023-01-10T03:19:55.515Z,38.88
2023-01-10T03:22:24.453Z,29.63
2023-01-10T03:24:53.855Z,28.95
2023-01-10T03:28:05.407Z,32.72
2023-01-10T03:30:40.050Z,36.00
2023-01-10T03:33:07.741Z,35.10
2023-01-10T03:36:01.097Z,40.58
2023-01-10T03:41:22.379Z,42.85
2023-01-10T03:44:15.982Z,33.95
2023-01-10T03:46:50.094Z,37.15
2023-01-10T03:49:19.150Z,39.30
2023-01-10T03:51:46.789Z,41.92
2023-01-10T03:54:16.910Z,34.38
2023-01-10T03:56:50.101Z,42.25
2023-01-10T03:59:23.656Z,34.13
2023-01-10T04:01:51.395Z,36.97
2023-01-10T04:04:21.406Z,39.72
2023-01-10T04:06:48.954Z,45.95
2023-01-10T04:09:16.455Z,37.17
2023-01-10T04:11:43.983Z,43.63
2023-01-10T04:14:11.505Z,32.03
2023-01-10T04:16:38.990Z,38.90
2023-01-10T04:19:06.832Z,41.67
2023-01-10T04:21:34.216Z,34.72
2023-01-10T04:24:01.650Z,30.35
2023-01-10T04:26:29.405Z,36.55
2023-01-10T04:28:56.994Z,41.28
2023-01-10T04:31:24.453Z,43.60
2023-01-10T04:33:51.951Z,39.55
2023-01-10T04:36:19.482Z,52.17
2023-01-10T04:38:46.904Z,46.58
2023-01-10T04:41:14.288Z,33.42
2023-01-10T04:43:41.616Z,48.20
2023-01-10T04:46:09.143Z,35.60
2023-01-10T04:48:37.609Z,36.33
2023-01-10T04:51:05.432Z,40.20
2023-01-10T04:53:33.005Z,44.17
2023-01-10T04:56:08.510Z,45.95
2023-01-10T04:58:37.831Z,43.90
2023-01-10T05:01:21.088Z,41.90
2023-01-10T05:03:52.272Z,34.75
2023-01-10T05:06:20.571Z,42.55
2023-01-10T05:08:48.381Z,43.95
2023-01-10T05:11:16.545Z,44.88
2023-01-10T05:13:44.821Z,48.50
2023-01-10T05:16:13.007Z,43.17
2023-01-10T05:18:40.828Z,43.38
2023-01-10T05:21:11.077Z,46.13
2023-01-10T05:23:38.993Z,44.65
2023-01-10T05:26:24.580Z,50.25
2023-01-10T05:28:52.086Z,36.97
2023-01-10T05:31:20.471Z,41.85
2023-01-10T05:33:49.732Z,42.85
2023-01-10T05:36:18.149Z,45.38
2023-01-10T05:38:45.809Z,40.00
2023-01-10T05:41:13.411Z,39.83
2023-01-10T05:43:40.809Z,47.35
2023-01-10T05:46:08.357Z,50.45
2023-01-10T05:48:35.814Z,38.70
2023-01-10T05:51:03.915Z,41.67
2023-01-10T05:53:31.265Z,38.63
2023-01-10T05:56:00.752Z,41.67
2023-01-10T05:58:29.273Z,40.55
2023-01-10T06:00:57.684Z,44.45
2023-01-10T06:03:26.879Z,44.30
2023-01-10T06:05:55.512Z,48.92
2023-01-10T06:08:23.456Z,36.30
2023-01-10T06:10:51.139Z,35.53
2023-01-10T06:13:18.795Z,43.95
2023-01-10T06:15:46.447Z,38.42
2023-01-10T06:18:14.127Z,37.67
2023-01-10T06:20:42.694Z,42.70
2023-01-10T06:23:10.136Z,39.25
2023-01-10T06:25:40.978Z,43.75
2023-01-10T06:28:13.579Z,38.60
2023-01-10T06:30:43.379Z,33.85
2023-01-10T06:33:12.168Z,42.63
2023-01-10T06:35:39.941Z,38.88
2023-01-10T06:38:07.440Z,44.47
2023-01-10T06:40:35.068Z,41.40
2023-01-10T06:43:02.374Z,42.80
2023-01-10T06:45:29.767Z,43.08
2023-01-10T06:47:57.207Z,45.85
2023-01-10T06:50:25.469Z,43.10
2023-01-10T06:52:57.519Z,41.13
2023-01-10T06:55:25.492Z,53.70
2023-01-10T06:58:03.508Z,31.10
2023-01-10T07:00:31.488Z,41.08
2023-01-10T07:02:59.628Z,39.75
2023-01-10T07:05:27.257Z,40.47
2023-01-10T07:07:54.567Z,52.17
2023-01-10T07:10:22.215Z,55.47
2023-01-10T07:12:49.552Z,50.40
2023-01-10T07:15:16.908Z,50.00
2023-01-10T07:17:44.197Z,50.58
2023-01-10T07:20:14.908Z,36.63
2023-01-10T07:22:42.185Z,47.17
2023-01-10T07:25:09.952Z,42.20
2023-01-10T07:27:43.436Z,41.88
2023-01-10T07:30:14.113Z,38.05
2023-01-10T07:32:43.907Z,45.10
2023-01-10T07:35:14.635Z,53.15
2023-01-10T07:37:42.131Z,58.47
2023-01-10T07:40:10.682Z,55.50
2023-01-10T07:42:38.408Z,49.50
2023-01-10T07:45:07.404Z,58.63
2023-01-10T07:47:34.942Z,40.65
2023-01-10T07:50:02.181Z,47.30
2023-01-10T07:52:29.475Z,57.78
2023-01-10T07:54:56.752Z,43.35
2023-01-10T07:57:24.038Z,51.40
2023-01-10T07:59:51.333Z,49.28
2023-01-10T08:02:18.686Z,50.95
2023-01-10T08:04:46.015Z,44.85
2023-01-10T08:07:13.281Z,53.95
2023-01-10T08:09:40.541Z,53.97
2023-01-10T08:12:07.859Z,49.05
2023-01-10T08:14:35.220Z,51.30
2023-01-10T08:17:02.613Z,50.33
2023-01-10T08:19:29.980Z,48.40
2023-01-10T08:21:57.397Z,57.35
2023-01-10T08:24:27.282Z,40.22
2023-01-10T08:26:57.773Z,47.03
2023-01-10T08:29:25.083Z,48.22
2023-01-10T08:31:52.414Z,43.00
2023-01-10T08:34:19.842Z,43.53
2023-01-10T08:36:52.176Z,37.97
2023-01-10T08:39:22.649Z,48.30
2023-01-10T08:41:50.152Z,40.42
2023-01-10T08:44:17.553Z,44.88
2023-01-10T08:46:45.834Z,51.65
2023-01-10T08:49:13.188Z,42.75
2023-01-10T08:51:40.869Z,41.83
2023-01-10T08:54:08.216Z,55.20
2023-01-10T08:56:37.484Z,53.30
2023-01-10T08:59:05.065Z,47.25
2023-01-10T09:01:32.407Z,44.33
2023-01-10T09:03:59.877Z,41.55
2023-01-10T09:06:27.189Z,46.03
2023-01-10T09:08:54.503Z,39.58
2023-01-10T09:11:21.813Z,39.72
2023-01-10T09:13:52.196Z,42.88
2023-01-10T09:16:21.014Z,46.65
2023-01-10T09:18:48.322Z,50.85
2023-01-10T09:21:15.603Z,43.25
2023-01-10T09:23:43.679Z,43.38
2023-01-10T09:26:10.995Z,45.13
2023-01-10T09:28:38.239Z,40.08
2023-01-10T09:31:08.827Z,51.83
2023-01-10T09:33:46.273Z,45.17
2023-01-10T09:36:15.698Z,41.90
2023-01-10T09:38:43.786Z,42.33
2023-01-10T09:41:49.043Z,45.60
2023-01-10T09:44:23.573Z,41.03
2023-01-10T09:47:08.391Z,47.30
2023-01-10T09:50:01.202Z,39.55
2023-01-10T09:52:35.256Z,46.60
2023-01-10T09:55:20.751Z,35.95
2023-01-10T09:57:48.495Z,44.55
2023-01-10T10:00:28.022Z,39.17
2023-01-10T10:02:57.000Z,45.30
2023-01-10T10:05:28.503Z,38.22
2023-01-10T10:08:05.768Z,29.88
2023-01-10T10:11:05.646Z,37.40
2023-01-10T10:13:56.611Z,41.90
2023-01-10T10:20:11.594Z,29.08
2023-01-10T10:23:00.665Z,37.58
2023-01-10T10:25:46.053Z,35.78
2023-01-10T10:28:53.569Z,40.17
2023-01-10T10:31:33.937Z,34.60
2023-01-10T10:34:25.122Z,37.92
2023-01-10T10:37:02.617Z,33.67
2023-01-10T10:39:47.566Z,34.55
2023-01-10T10:42:17.256Z,34.83
2023-01-10T10:44:56.982Z,36.08
2023-01-10T10:47:26.927Z,28.40
2023-01-10T10:50:15.490Z,35.75
2023-01-10T10:52:46.472Z,34.08
2023-01-10T10:55:16.207Z,35.55
2023-01-10T10:57:59.015Z,37.78
2023-01-10T11:00:28.157Z,39.50
2023-01-10T11:03:22.506Z,40.45
2023-01-10T11:05:50.179Z,33.65
2023-01-10T11:08:19.988Z,35.25
2023-01-10T11:10:50.529Z,34.75
2023-01-10T11:13:34.944Z,34.75
2023-01-10T11:16:04.769Z,35.13
2023-01-10T11:18:33.481Z,36.75
2023-01-10T11:21:13.733Z,39.83
2023-01-10T11:23:59.890Z,37.63
2023-01-10T11:26:41.424Z,38.80
2023-01-10T11:29:16.190Z,34.67
2023-01-10T11:31:43.711Z,30.13
2023-01-10T11:34:30.222Z,36.05
2023-01-10T11:37:08.747Z,30.50
2023-01-10T11:39:36.032Z,36.33
2023-01-10T11:42:25.308Z,34.72
2023-01-10T11:44:52.551Z,32.65
2023-01-10T11:47:21.032Z,39.45
2023-01-10T11:49:50.124Z,39.53
2023-01-10T11:52:29.848Z,32.45
2023-01-10T11:55:00.355Z,36.70
2023-01-10T11:57:30.525Z,32.65
2023-01-10T12:00:05.302Z,39.00
2023-01-10T12:02:39.639Z,35.55
2023-01-10T12:05:13.718Z,35.22
2023-01-10T12:08:06.596Z,33.75
2023-01-10T12:10:34.900Z,29.10
2023-01-10T12:13:29.578Z,25.75
2023-01-10T12:16:16.126Z,42.70
2023-01-10T12:18:43.583Z,28.35
2023-01-10T12:21:13.212Z,33.35
2023-01-10T12:23:44.503Z,31.13
2023-01-10T12:26:15.672Z,32.45
2023-01-10T12:28:51.548Z,34.85
2023-01-10T12:31:20.992Z,32.08
2023-01-10T12:33:54.137Z,31.30
2023-01-10T12:36:30.293Z,30.25
2023-01-10T12:39:23.071Z,27.88
2023-01-10T12:42:43.589Z,35.83
2023-01-10T12:45:51.291Z,30.95
2023-01-10T12:48:43.941Z,32.80
2023-01-10T12:51:15.936Z,37.50
2023-01-10T12:53:49.643Z,34.20
2023-01-10T12:56:18.822Z,35.78
2023-01-10T12:58:55.636Z,36.88
2023-01-10T13:01:31.764Z,35.60
2023-01-10T13:04:13.793Z,30.67
2023-01-10T13:06:43.760Z,34.63
2023-01-10T13:09:18.279Z,35.25
2023-01-10T13:11:53.280Z,32.10
2023-01-10T13:14:25.661Z,23.10
2023-01-10T13:17:03.549Z,31.98
2023-01-10T13:19:30.864Z,36.25
2023-01-10T13:22:19.174Z,39.08
2023-01-10T13:25:01.150Z,37.92
2023-01-10T13:27:34.089Z,30.95
2023-01-10T13:32:35.585Z,41.22
2023-01-10T13:35:18.019Z,31.98
2023-01-10T13:37:50.845Z,30.52
2023-01-10T13:43:34.524Z,35.72
2023-01-10T13:46:17.220Z,30.33
2023-01-10T13:49:10.694Z,35.53
2023-01-10T13:54:26.803Z,33.00
2023-01-10T13:56:54.334Z,28.35
2023-01-10T13:59:46.298Z,40.72
2023-01-10T14:02:29.606Z,29.65
2023-01-10T14:05:06.437Z,35.25
2023-01-10T14:07:48.831Z,39.78
2023-01-10T14:10:25.014Z,33.40
2023-01-10T14:13:11.054Z,32.95
2023-01-10T14:15:46.184Z,31.63
2023-01-10T14:18:23.951Z,36.13
2023-01-10T14:21:10.731Z,34.30
2023-01-10T14:23:38.862Z,37.72
2023-01-10T14:26:06.331Z,31.38
2023-01-10T14:28:35.043Z,30.95
2023-01-10T14:31:13.959Z,25.95
2023-01-10T14:33:43.674Z,22.70
2023-01-10T14:36:20.135Z,29.80
2023-01-10T14:38:48.352Z,28.08
2023-01-10T14:41:37.800Z,32.78
2023-01-10T14:44:17.068Z,27.65
2023-01-10T14:46:50.205Z,33.35
2023-01-10T14:49:27.931Z,28.40
2023-01-10T14:52:16.116Z,32.58
2023-01-10T14:54:45.469Z,26.50
2023-01-10T14:57:21.942Z,29.80
2023-01-10T14:59:51.216Z,28.52
2023-01-10T15:02:27.345Z,35.92
2023-01-10T15:05:17.126Z,33.15
2023-01-10T15:07:44.913Z,37.60
2023-01-10T15:10:39.887Z,35.95
2023-01-10T15:13:07.394Z,28.95
2023-01-10T15:15:39.042Z,33.80
2023-01-10T15:18:24.189Z,25.38
2023-01-10T15:20:52.437Z,22.67
2023-01-10T15:23:27.208Z,21.58
2023-01-10T15:26:08.016Z,19.90
2023-01-10T15:28:36.751Z,30.33
2023-01-10T15:31:10.984Z,23.58
2023-01-10T15:33:49.065Z,23.27
2023-01-10T15:39:00.924Z,23.85
2023-01-10T15:41:33.620Z,20.45
2023-01-10T15:44:29.670Z,27.58
2023-01-10T15:46:57.923Z,25.38
2023-01-10T15:49:25.807Z,18.15
2023-01-10T15:51:53.430Z,18.52
2023-01-10T15:54:21.718Z,15.85
2023-01-10T15:56:51.773Z,15.38
2023-01-10T15:59:34.591Z,16.83
2023-01-10T16:02:25.016Z,15.98
2023-01-10T16:04:55.719Z,17.13
2023-01-10T16:07:33.303Z,17.88
2023-01-10T16:10:08.203Z,17.50
2023-01-10T16:12:56.912Z,13.23
2023-01-10T16:15:26.650Z,14.88
2023-01-10T16:17:54.355Z,13.85
2023-01-10T16:20:43.284Z,11.65
2023-01-10T16:23:22.083Z,12.05
2023-01-10T16:25:57.707Z,11.90
2023-01-10T16:28:27.482Z,13.05
2023-01-10T16:30:56.404Z,13.52
2023-01-10T16:33:27.030Z,12.13
2023-01-10T16:35:58.982Z,13.55
2023-01-10T16:38:28.366Z,12.13
2023-01-10T16:41:21.026Z,11.63
2023-01-10T16:43:52.080Z,8.23
2023-01-10T16:46:19.581Z,17.65
2023-01-10T16:48:47.760Z,10.48
2023-01-10T16:51:22.046Z,10.93
2023-01-10T16:53:49.591Z,12.05
2023-01-10T16:56:19.672Z,12.32
2023-01-10T16:58:51.021Z,10.52
2023-01-10T17:01:20.408Z,9.00
2023-01-10T17:03:48.370Z,13.73
2023-01-10T17:06:16.915Z,13.55
2023-01-10T17:08:47.492Z,11.88
2023-01-10T17:11:20.274Z,13.00
2023-01-10T17:13:48.149Z,12.90
2023-01-10T17:16:19.464Z,14.68
2023-01-10T17:18:47.636Z,14.07
2023-01-10T17:21:18.211Z,9.73
2023-01-10T17:23:46.156Z,11.55
2023-01-10T17:26:15.684Z,11.95
2023-01-10T17:28:45.331Z,15.18
2023-01-10T17:31:12.817Z,11.93
2023-01-10T17:33:40.217Z,12.25
2023-01-10T17:36:10.853Z,14.23
2023-01-10T17:38:38.938Z,14.27
2023-01-10T17:41:07.478Z,12.57
2023-01-10T17:43:41.759Z,10.88
2023-01-10T17:46:11.107Z,13.43
2023-01-10T17:48:38.891Z,10.98
2023-01-10T17:51:06.601Z,11.43
2023-01-10T17:53:34.269Z,15.35
2023-01-10T17:56:01.834Z,12.20
2023-01-10T17:58:29.555Z,13.52
2023-01-10T18:00:57.093Z,11.93
2023-01-10T18:03:25.039Z,11.57
2023-01-10T18:05:56.971Z,14.25
2023-01-10T18:08:25.418Z,12.18
2023-01-10T18:11:00.482Z,12.93
2023-01-10T18:13:34.286Z,14.30
2023-01-10T18:16:02.446Z,12.75
2023-01-10T18:18:30.741Z,14.85
2023-01-10T18:21:01.471Z,12.13
2023-01-10T18:23:31.713Z,11.77
2023-01-10T18:26:03.784Z,14.40
2023-01-10T18:28:42.118Z,17.07
2023-01-10T18:31:16.250Z,14.05
2023-01-10T18:33:44.444Z,13.30
2023-01-10T18:39:07.413Z,14.50
2023-01-10T18:41:34.850Z,18.80
2023-01-10T18:44:02.155Z,15.00
2023-01-10T18:46:30.442Z,14.45
2023-01-10T18:48:57.944Z,12.10
2023-01-10T18:51:25.588Z,13.75
2023-01-10T18:53:53.185Z,14.00
2023-01-10T18:56:20.811Z,13.45
2023-01-10T18:58:49.113Z,15.07
2023-01-10T19:01:18.897Z,12.25
2023-01-10T19:03:46.644Z,14.55
2023-01-10T19:06:16.728Z,13.85
2023-01-10T19:08:45.536Z,13.77
2023-01-10T19:11:16.040Z,13.82
2023-01-10T19:13:48.288Z,15.77
2023-01-10T19:16:22.463Z,15.55
2023-01-10T19:18:51.932Z,12.55
2023-01-10T19:21:19.913Z,14.85
2023-01-10T19:23:49.687Z,12.38
2023-01-10T19:26:17.773Z,13.85
2023-01-10T19:28:45.782Z,13.63
2023-01-10T19:31:24.354Z,15.48
2023-01-10T19:33:52.294Z,13.50
2023-01-10T19:36:21.843Z,16.42
2023-01-10T19:38:53.542Z,14.95
2023-01-10T19:41:20.951Z,14.10
2023-01-10T19:43:48.406Z,13.52
2023-01-10T19:46:15.712Z,13.07
2023-01-10T19:48:42.993Z,19.63
2023-01-10T19:51:14.057Z,17.20
2023-01-10T19:53:44.548Z,15.50
2023-01-10T19:56:13.798Z,17.92
2023-01-10T19:58:41.060Z,17.42
2023-01-10T20:01:17.217Z,17.92
2023-01-10T20:03:46.630Z,15.77
2023-01-10T20:06:19.981Z,14.70
2023-01-10T20:08:48.347Z,12.55
2023-01-10T20:11:16.790Z,14.65
2023-01-10T20:13:45.377Z,14.40
2023-01-10T20:16:15.938Z,16.05
2023-01-10T20:18:49.593Z,12.75
2023-01-10T20:21:18.346Z,14.88
2023-01-10T20:23:46.034Z,15.23
2023-01-10T20:26:22.276Z,13.73
2023-01-10T20:28:50.789Z,14.50
2023-01-10T20:31:23.169Z,18.58
2023-01-10T20:33:51.224Z,23.15
2023-01-10T20:36:20.778Z,20.40
2023-01-10T20:38:48.151Z,19.77
2023-01-10T20:41:23.505Z,19.02
2023-01-10T20:43:51.568Z,21.77
2023-01-10T20:46:37.743Z,22.15
2023-01-10T20:49:05.257Z,19.70
2023-01-10T20:51:35.560Z,20.00
2023-01-10T20:54:05.845Z,20.05
2023-01-10T20:56:35.185Z,22.17
2023-01-10T20:59:03.424Z,20.50
2023-01-10T21:01:35.779Z,24.88
2023-01-10T21:04:07.878Z,26.38
2023-01-10T21:06:37.245Z,20.67
2023-01-10T21:09:05.291Z,25.48
2023-01-10T21:11:41.064Z,25.85
2023-01-10T21:14:15.097Z,23.45
2023-01-10T21:16:44.553Z,23.05
2023-01-10T21:19:13.737Z,22.27
2023-01-10T21:21:42.712Z,22.95
2023-01-10T21:24:10.689Z,22.38
2023-01-10T21:26:38.608Z,21.45
2023-01-10T21:29:06.108Z,20.40
2023-01-10T21:31:33.619Z,19.05
2023-01-10T21:34:01.631Z,19.20
2023-01-10T21:36:29.280Z,20.63
2023-01-10T21:38:57.062Z,18.17
2023-01-10T21:41:42.827Z,16.55
2023-01-10T21:44:10.435Z,16.55
2023-01-10T21:46:37.937Z,16.80
2023-01-10T21:49:05.967Z,16.17
2023-01-10T21:51:33.715Z,15.63
2023-01-10T21:54:01.693Z,16.70
2023-01-10T21:56:29.823Z,17.77
2023-01-10T21:58:57.434Z,18.45
2023-01-10T22:01:24.832Z,12.77
2023-01-10T22:03:52.478Z,14.95
2023-01-10T22:06:20.402Z,15.30
2023-01-10T22:08:47.855Z,13.00
2023-01-10T22:11:15.429Z,15.20
2023-01-10T22:13:42.902Z,15.73
2023-01-10T22:16:10.583Z,19.52
2023-01-10T22:18:39.044Z,19.77
2023-01-10T22:21:06.662Z,19.17
2023-01-10T22:23:34.776Z,18.25
2023-01-10T22:26:21.174Z,17.33
2023-01-10T22:28:48.807Z,17.50
2023-01-10T22:31:16.428Z,18.60
2023-01-10T22:33:47.003Z,20.23
2023-01-10T22:36:16.971Z,20.63
2023-01-10T22:38:45.544Z,18.98
2023-01-10T22:41:15.043Z,19.33
2023-01-10T22:43:44.948Z,18.05
2023-01-10T22:46:16.010Z,21.00
2023-01-10T22:48:44.437Z,19.52
2023-01-10T22:51:15.470Z,18.45
2023-01-10T22:53:45.264Z,19.38
2023-01-10T22:56:12.967Z,16.48
2023-01-10T22:58:48.242Z,22.48
2023-01-10T23:01:17.835Z,18.25
2023-01-10T23:03:47.392Z,20.15
2023-01-10T23:06:18.340Z,19.40
2023-01-10T23:08:50.839Z,20.75
2023-01-10T23:11:28.770Z,22.08
2023-01-10T23:13:57.887Z,23.30
2023-01-10T23:16:33.043Z,22.33
2023-01-10T23:19:02.507Z,18.45
2023-01-10T23:21:34.404Z,18.08
2023-01-10T23:24:03.284Z,18.10
2023-01-10T23:26:30.934Z,19.80
2023-01-10T23:28:58.636Z,17.48
2023-01-10T23:31:29.395Z,21.00
2023-01-10T23:33:57.403Z,21.77
2023-01-10T23:36:25.093Z,20.20
2023-01-10T23:38:53.820Z,19.52
2023-01-10T23:41:25.824Z,21.08
2023-01-10T23:43:56.176Z,19.33
2023-01-10T23:46:25.409Z,16.38
2023-01-10T23:51:38.603Z,18.85
2023-01-10T23:57:02.463Z,17.83
2023-01-10T23:59:35.393Z,19.98
